Mount Clemens, MI

05:13 PM EST del 28 Gennaio 2015 (GMT -0500)
Venice Shores on Lake St. Clair | Change Station
CLOSE
Current Station
Stazione meteo personale
Location: Harrison, MI
Altitudine: 577 ft
Stazioni meteo nelle vicinanze

Alt. 577 ft 42.60 °N, 82.80 °W | Updated 13 minutes ago

Mostly Cloudy
Molto nuvoloso
21.8 °F
Sembra 13 °F
N
6.9
Vento Variabile Vento da Sud
Gusts 10.6 mph

Oggi
Massima -- | Minima -- °F
--% Possibilità di precip.
Ieri
Massima -- | Minima -- °F
Precip. -- in
7:49 AM 5:39 PM
Gobba a ponente, 68% visible
Pressione 30.30 in
Visibilità 12.0 miglia
Nuvole Nubi sparse 21000 ft
Molto nuvoloso 25000 ft
Raffreddamento del vento 13 °F
Punto di rugiada 18 °F
Umidità 84%
Piovosità 0.00 in
Spessore del manto nevoso Non disponibile.
Raggi UV 0 fuori da 12
Polline .10 fuori da 12
Qualità dell'aria Non disponibile.
Flu Activity Non disponibile.
METAR KMTC 282155Z 17011KT 12SM SCT210 BKN250 M05/M10 A3024 RMK SLP259 T10481097

More Conditions Fewer Conditions

Pressione 30.30 in
Visibilità 12.0 miglia
Nuvole Nubi sparse 21000 ft
Molto nuvoloso 25000 ft
Raffreddamento del vento 13 °F
Punto di rugiada 18 °F
Umidità 84%
Piovosità 0.00 in
Spessore del manto nevoso Non disponibile.
Raggi UV 0 fuori da 12
Polline .10 fuori da 12
Qualità dell'aria Non disponibile.
Flu Activity Non disponibile.
METAR KMTC 282155Z 17011KT 12SM SCT210 BKN250 M05/M10 A3024 RMK SLP259 T10481097

More Conditions Fewer Conditions

10-Day Weather Forecast

Almanac

Astronomia

Jan. 28, 2015 Alba Tramonto
Ora attuale
Crepuscolo civile
Crepuscolo nautico
Crepuscolo astronomico
Luna
Estensione della luce visibile
Lunghezza del giorno
Tomorrow will be .
, % of the Moon is Illuminated

Gli estremi di oggi

State Highs State Lows

Community

WunderPhotos

Upload Photos

1,791,276 foto caricate!

WunderBlogs® & News

Nearby

Qualità dell'aria

  Qualità dell'aria Indice AQ Inquinante
Not available.

Profondità neve

Stazione Profondità Altitudine

Attività sismica

Città  Distanza Mag. Data & Ora
Minimo Magnitudo Mostrato è 2.5.

Temperature delle acque costiere

Località Temperatura

Stazioni meteo nelle vicinanze